createdAt,value
2018-09-28T00:00:47.911Z,11.13
2018-09-28T00:03:15.484Z,8.90
2018-09-28T00:05:43.070Z,8.60
2018-09-28T00:08:10.772Z,11.13
2018-09-28T00:10:38.420Z,9.40
2018-09-28T00:13:06.080Z,9.77
2018-09-28T00:15:33.747Z,10.72
2018-09-28T00:18:01.372Z,8.93
2018-09-28T00:23:01.256Z,10.70
2018-09-28T00:25:28.901Z,10.90
2018-09-28T00:27:56.848Z,4.55
2018-09-28T00:30:24.441Z,4.35
2018-09-28T00:32:52.149Z,7.27
2018-09-28T00:35:19.774Z,7.40
2018-09-28T00:37:47.458Z,5.08
2018-09-28T00:40:15.083Z,5.42
2018-09-28T00:42:42.658Z,8.10
2018-09-28T00:45:10.307Z,6.80
2018-09-28T00:47:37.954Z,8.68
2018-09-28T00:50:05.898Z,6.90
2018-09-28T00:52:33.783Z,7.27
2018-09-28T00:55:01.430Z,11.13
2018-09-28T00:57:29.110Z,6.92
2018-09-28T00:59:56.710Z,5.33
2018-09-28T01:02:24.371Z,5.50
2018-09-28T01:04:52.123Z,6.50
2018-09-28T01:07:19.733Z,4.97
2018-09-28T01:09:47.352Z,12.20
2018-09-28T01:12:14.968Z,3.30
2018-09-28T01:14:42.639Z,3.57
2018-09-28T01:17:10.263Z,5.67
2018-09-28T01:19:37.920Z,5.03
2018-09-28T01:22:05.557Z,4.97
2018-09-28T01:24:33.324Z,3.75
2018-09-28T01:27:00.987Z,6.00
2018-09-28T01:29:28.781Z,5.73
2018-09-28T01:31:56.411Z,9.20
2018-09-28T01:34:24.047Z,5.15
2018-09-28T01:36:51.944Z,7.72
2018-09-28T01:39:20.021Z,3.58
2018-09-28T01:41:47.759Z,3.12
2018-09-28T01:44:15.843Z,5.60
2018-09-28T01:46:43.475Z,5.62
2018-09-28T01:49:11.344Z,4.33
2018-09-28T01:51:39.000Z,6.20
2018-09-28T01:54:06.850Z,4.77
2018-09-28T01:56:34.504Z,6.33
2018-09-28T01:59:02.278Z,9.73
2018-09-28T02:01:29.964Z,3.83
2018-09-28T02:03:58.000Z,4.80
2018-09-28T02:06:25.610Z,3.83
2018-09-28T02:08:53.260Z,7.25
2018-09-28T02:11:20.928Z,9.33
2018-09-28T02:13:48.582Z,3.27
2018-09-28T02:16:16.227Z,5.13
2018-09-28T02:18:43.834Z,6.17
2018-09-28T02:21:11.679Z,5.50
2018-09-28T02:23:39.310Z,5.10
2018-09-28T02:26:07.518Z,7.37
2018-09-28T02:28:35.162Z,5.90
2018-09-28T02:31:02.911Z,4.37
2018-09-28T02:33:30.659Z,7.00
2018-09-28T02:35:58.493Z,4.47
2018-09-28T02:38:26.092Z,8.38
2018-09-28T02:40:53.773Z,7.23
2018-09-28T02:43:21.471Z,9.23
2018-09-28T02:45:49.059Z,8.98
2018-09-28T02:48:16.989Z,6.37
2018-09-28T02:50:44.835Z,6.63
2018-09-28T02:53:18.637Z,7.53
2018-09-28T02:55:47.628Z,5.50
2018-09-28T02:58:15.248Z,6.00
2018-09-28T03:00:54.088Z,5.58
2018-09-28T03:03:22.020Z,11.30
2018-09-28T03:05:49.775Z,7.67
2018-09-28T03:08:17.413Z,6.33
2018-09-28T03:10:45.057Z,4.93
2018-09-28T03:13:12.697Z,7.47
2018-09-28T03:15:40.664Z,7.43
2018-09-28T03:18:08.355Z,8.30
2018-09-28T03:20:36.036Z,7.65
2018-09-28T03:23:03.679Z,5.50
2018-09-28T03:25:31.338Z,7.70
2018-09-28T03:27:59.102Z,8.63
2018-09-28T03:30:26.787Z,6.57
2018-09-28T03:32:54.472Z,6.80
2018-09-28T03:35:22.129Z,6.17
2018-09-28T03:37:49.803Z,8.15
2018-09-28T03:40:17.497Z,7.25
2018-09-28T03:42:45.164Z,7.70
2018-09-28T03:45:12.821Z,9.80
2018-09-28T03:47:42.858Z,10.83
2018-09-28T03:50:10.603Z,7.43
2018-09-28T03:52:38.190Z,9.10
2018-09-28T03:55:06.097Z,7.83
2018-09-28T03:57:34.663Z,7.30
2018-09-28T04:00:02.441Z,7.30
2018-09-28T04:02:30.046Z,8.47
2018-09-28T04:04:57.776Z,8.65
2018-09-28T04:07:25.465Z,8.07
2018-09-28T04:09:53.300Z,10.07
2018-09-28T04:12:21.008Z,7.43
2018-09-28T04:14:48.620Z,8.17
2018-09-28T04:17:16.269Z,7.72
2018-09-28T04:19:43.899Z,9.03
2018-09-28T04:22:11.857Z,10.53
2018-09-28T04:24:39.577Z,7.73
2018-09-28T04:27:07.542Z,10.20
2018-09-28T04:29:35.196Z,10.87
2018-09-28T04:32:02.822Z,10.83
2018-09-28T04:34:30.506Z,12.70
2018-09-28T04:36:58.186Z,11.23
2018-09-28T04:39:25.810Z,10.48
2018-09-28T04:41:53.501Z,11.43
2018-09-28T04:44:22.178Z,8.77
2018-09-28T04:46:49.834Z,14.60
2018-09-28T04:49:17.562Z,10.25
2018-09-28T04:51:45.126Z,8.03
2018-09-28T04:54:12.858Z,9.70
2018-09-28T04:56:40.523Z,9.97
2018-09-28T04:59:08.351Z,9.78
2018-09-28T05:01:36.170Z,16.00
2018-09-28T05:04:03.779Z,9.73
2018-09-28T05:06:31.452Z,9.80
2018-09-28T05:08:59.297Z,13.10
2018-09-28T05:11:26.925Z,9.03
2018-09-28T05:13:54.556Z,12.35
2018-09-28T05:16:22.194Z,11.13
2018-09-28T05:18:49.833Z,9.95
2018-09-28T05:21:17.449Z,7.05
2018-09-28T05:23:45.127Z,8.03
2018-09-28T05:26:12.819Z,10.83
2018-09-28T05:28:40.624Z,13.43
2018-09-28T05:31:08.459Z,14.20
2018-09-28T05:33:36.115Z,12.70
2018-09-28T05:36:05.063Z,12.77
2018-09-28T05:38:32.833Z,20.27
2018-09-28T05:41:00.685Z,25.43
2018-09-28T05:43:28.352Z,17.33
2018-09-28T05:45:55.988Z,14.80
2018-09-28T05:48:23.659Z,15.72
2018-09-28T05:50:51.261Z,10.65
2018-09-28T05:53:18.907Z,13.87
2018-09-28T05:55:46.738Z,14.20
2018-09-28T05:58:20.169Z,15.70
2018-09-28T06:00:53.602Z,12.00
2018-09-28T06:03:21.863Z,18.33
2018-09-28T06:05:55.289Z,13.70
2018-09-28T06:08:22.901Z,13.73
2018-09-28T06:10:50.612Z,10.70
2018-09-28T06:13:19.416Z,10.05
2018-09-28T06:15:47.136Z,9.80
2018-09-28T06:18:14.821Z,12.83
2018-09-28T06:20:42.502Z,11.63
2018-09-28T06:23:10.258Z,14.50
2018-09-28T06:25:37.879Z,12.83
2018-09-28T06:28:05.607Z,15.03
2018-09-28T06:30:33.294Z,12.58
2018-09-28T06:33:00.972Z,12.50
2018-09-28T06:35:28.588Z,16.03
2018-09-28T06:37:56.226Z,13.60
2018-09-28T06:40:23.944Z,11.28
2018-09-28T06:42:51.549Z,12.17
2018-09-28T06:45:19.216Z,16.32
2018-09-28T06:47:47.818Z,12.13
2018-09-28T06:50:15.501Z,15.45
2018-09-28T06:52:43.202Z,15.63
2018-09-28T06:55:10.888Z,16.40
2018-09-28T06:57:38.588Z,18.43
2018-09-28T07:00:07.137Z,18.00
2018-09-28T07:02:34.774Z,18.67
2018-09-28T07:05:02.590Z,19.30
2018-09-28T07:07:30.298Z,22.50
2018-09-28T07:09:58.120Z,19.93
2018-09-28T07:12:25.745Z,20.77
2018-09-28T07:14:53.437Z,21.75
2018-09-28T07:17:21.081Z,23.20
2018-09-28T07:19:48.806Z,20.50
2018-09-28T07:22:16.481Z,20.17
2018-09-28T07:24:44.098Z,17.95
2018-09-28T07:27:11.781Z,21.77
2018-09-28T07:29:39.412Z,19.25
2018-09-28T07:32:07.119Z,24.45
2018-09-28T07:34:34.769Z,28.13
2018-09-28T07:37:02.562Z,26.33
2018-09-28T07:39:30.027Z,25.83
2018-09-28T07:41:57.818Z,29.52
2018-09-28T07:44:25.312Z,24.60
2018-09-28T07:46:52.974Z,20.10
2018-09-28T07:49:20.615Z,23.67
2018-09-28T07:51:48.242Z,24.27
2018-09-28T07:54:15.965Z,30.32
2018-09-28T07:56:43.795Z,28.38
2018-09-28T07:59:11.471Z,23.27
2018-09-28T08:01:39.048Z,30.47
2018-09-28T08:04:07.147Z,28.50
2018-09-28T08:06:34.792Z,24.77
2018-09-28T08:09:03.480Z,31.30
2018-09-28T08:11:31.135Z,32.55
2018-09-28T08:13:58.760Z,28.40
2018-09-28T08:16:26.500Z,27.80
2018-09-28T08:18:54.077Z,30.33
2018-09-28T08:21:21.756Z,26.60
2018-09-28T08:23:49.762Z,25.83
2018-09-28T08:26:19.274Z,31.90
2018-09-28T08:28:46.903Z,23.83
2018-09-28T08:31:14.510Z,24.63
2018-09-28T08:33:42.156Z,31.60
2018-09-28T08:36:09.999Z,29.20
2018-09-28T08:38:37.618Z,26.00
2018-09-28T08:41:05.779Z,24.70
2018-09-28T08:43:33.431Z,29.63
2018-09-28T08:46:01.102Z,27.90
2018-09-28T08:48:28.964Z,31.42
2018-09-28T08:50:56.634Z,30.02
2018-09-28T08:53:24.297Z,29.53
2018-09-28T08:55:52.019Z,30.17
2018-09-28T08:58:19.741Z,24.40
2018-09-28T09:00:47.486Z,27.05
2018-09-28T09:03:15.198Z,25.67
2018-09-28T09:05:42.919Z,35.45
2018-09-28T09:08:10.813Z,27.73
2018-09-28T09:10:38.493Z,26.20
2018-09-28T09:13:06.211Z,30.13
2018-09-28T09:15:33.843Z,36.93
2018-09-28T09:18:01.605Z,29.43
2018-09-28T09:20:29.261Z,31.23
2018-09-28T09:22:56.845Z,31.68
2018-09-28T09:25:24.507Z,39.23
2018-09-28T09:27:52.294Z,32.70
2018-09-28T09:30:20.354Z,30.70
2018-09-28T09:32:47.986Z,31.20
2018-09-28T09:35:15.843Z,26.45
2018-09-28T09:37:43.406Z,35.90
2018-09-28T09:40:11.052Z,31.47
2018-09-28T09:42:38.827Z,32.03
2018-09-28T09:45:06.512Z,32.47
2018-09-28T09:47:34.236Z,30.02
2018-09-28T09:50:01.948Z,33.23
2018-09-28T09:52:29.651Z,30.27
2018-09-28T09:54:57.330Z,31.63
2018-09-28T09:57:25.108Z,28.47
2018-09-28T09:59:52.770Z,34.25
2018-09-28T10:02:26.304Z,36.37
2018-09-28T10:04:53.959Z,34.17
2018-09-28T10:07:21.630Z,33.53
2018-09-28T10:09:49.492Z,37.28
2018-09-28T10:12:17.056Z,33.83
2018-09-28T10:14:44.713Z,41.53
2018-09-28T10:17:12.339Z,35.90
2018-09-28T10:19:40.587Z,36.58
2018-09-28T10:22:08.290Z,33.53
2018-09-28T10:24:35.891Z,42.88
2018-09-28T10:27:03.668Z,44.10
2018-09-28T10:29:31.335Z,37.40
2018-09-28T10:31:58.990Z,43.50
2018-09-28T10:34:26.668Z,44.10
2018-09-28T10:36:54.370Z,34.73
2018-09-28T10:39:22.068Z,32.57
2018-09-28T10:41:49.670Z,32.23
2018-09-28T10:44:17.310Z,30.17
2018-09-28T10:46:45.053Z,27.80
2018-09-28T10:49:12.683Z,31.80
2018-09-28T10:51:40.395Z,28.55
2018-09-28T10:54:08.026Z,31.93
2018-09-28T10:56:35.784Z,26.37
2018-09-28T10:59:15.211Z,34.80
2018-09-28T11:01:42.931Z,28.07
2018-09-28T11:04:10.640Z,32.65
2018-09-28T11:06:38.317Z,20.40
2018-09-28T11:09:08.726Z,20.70
2018-09-28T11:11:36.386Z,20.13
2018-09-28T11:14:04.055Z,17.27
2018-09-28T11:16:31.718Z,15.35
2018-09-28T11:18:59.475Z,20.43
2018-09-28T11:21:27.244Z,26.20
2018-09-28T11:23:54.835Z,20.70
2018-09-28T11:26:22.473Z,16.95
2018-09-28T11:28:50.124Z,20.27
2018-09-28T11:31:17.902Z,21.90
2018-09-28T11:33:45.635Z,19.27
2018-09-28T11:36:13.410Z,16.67
2018-09-28T11:38:41.083Z,20.95
2018-09-28T11:41:08.768Z,16.50
2018-09-28T11:43:36.466Z,13.32
2018-09-28T11:46:04.194Z,17.73
2018-09-28T11:48:31.913Z,13.73
2018-09-28T11:50:59.720Z,14.43
2018-09-28T11:53:27.440Z,11.00
2018-09-28T11:55:55.112Z,16.90
2018-09-28T11:58:22.804Z,22.93
2018-09-28T12:00:50.708Z,16.83
2018-09-28T12:03:18.412Z,18.97
2018-09-28T12:05:46.076Z,15.27
2018-09-28T12:08:13.767Z,10.43
2018-09-28T12:10:41.551Z,10.78
2018-09-28T12:13:09.299Z,10.40
2018-09-28T12:15:37.020Z,5.37
2018-09-28T12:18:04.949Z,8.25
2018-09-28T12:20:32.590Z,11.73
2018-09-28T12:23:00.213Z,13.80
2018-09-28T12:25:27.853Z,8.87
2018-09-28T12:27:55.506Z,14.00
2018-09-28T12:30:32.953Z,12.60
2018-09-28T12:33:00.551Z,12.63
2018-09-28T12:35:28.248Z,10.95
2018-09-28T12:37:55.903Z,8.43
2018-09-28T12:40:23.577Z,8.87
2018-09-28T12:42:51.301Z,11.80
2018-09-28T12:45:18.971Z,14.40
2018-09-28T12:47:46.623Z,10.08
2018-09-28T12:50:14.402Z,7.47
2018-09-28T12:52:42.042Z,14.67
2018-09-28T12:55:09.818Z,13.63
2018-09-28T12:57:37.531Z,13.77
2018-09-28T13:00:05.445Z,19.85
2018-09-28T13:02:33.156Z,10.80
2018-09-28T13:05:00.788Z,13.10
2018-09-28T13:07:28.471Z,16.45
2018-09-28T13:09:56.232Z,15.63
2018-09-28T13:12:23.905Z,12.00
2018-09-28T13:14:51.626Z,15.03
2018-09-28T13:17:19.324Z,16.23
2018-09-28T13:19:46.922Z,12.82
2018-09-28T13:22:14.664Z,14.63
2018-09-28T13:24:42.448Z,15.50
2018-09-28T13:27:10.114Z,14.90
2018-09-28T13:29:37.769Z,11.65
2018-09-28T13:32:05.405Z,22.57
2018-09-28T13:34:33.021Z,14.75
2018-09-28T13:37:00.688Z,15.83
2018-09-28T13:39:28.329Z,14.70
2018-09-28T13:41:55.925Z,14.93
2018-09-28T13:44:23.614Z,19.25
2018-09-28T13:46:51.297Z,19.40
2018-09-28T13:49:19.193Z,18.13
2018-09-28T13:51:46.848Z,20.60
2018-09-28T13:54:14.736Z,14.50
2018-09-28T13:56:42.537Z,19.13
2018-09-28T13:59:10.166Z,13.30
2018-09-28T14:01:37.815Z,18.10
2018-09-28T14:04:05.575Z,17.60
2018-09-28T14:06:33.335Z,17.30
2018-09-28T14:09:00.997Z,21.50
2018-09-28T14:11:28.666Z,17.67
2018-09-28T14:13:57.006Z,11.83
2018-09-28T14:16:24.699Z,19.23
2018-09-28T14:18:52.352Z,17.53
2018-09-28T14:21:20.091Z,15.37
2018-09-28T14:23:48.033Z,20.17
2018-09-28T14:26:15.979Z,15.75
2018-09-28T14:28:43.761Z,19.92
2018-09-28T14:31:11.474Z,17.98
2018-09-28T14:33:39.211Z,20.60
2018-09-28T14:36:07.034Z,16.50
2018-09-28T14:38:34.783Z,29.27
2018-09-28T14:41:02.599Z,25.00
2018-09-28T14:43:30.245Z,20.83
2018-09-28T14:45:58.058Z,24.82
2018-09-28T14:48:25.863Z,24.20
2018-09-28T14:50:53.496Z,25.60
2018-09-28T14:53:21.197Z,26.10
2018-09-28T14:55:48.917Z,22.67
2018-09-28T14:58:16.567Z,17.23
2018-09-28T15:00:44.280Z,18.67
2018-09-28T15:03:12.011Z,19.60
2018-09-28T15:05:39.870Z,19.45
2018-09-28T15:08:07.587Z,21.50
2018-09-28T15:10:35.347Z,18.70
2018-09-28T15:13:03.033Z,19.87
2018-09-28T15:15:30.911Z,16.33
2018-09-28T15:17:58.634Z,19.27
2018-09-28T15:20:26.393Z,11.33
2018-09-28T15:22:54.097Z,10.53
2018-09-28T15:25:21.867Z,15.98
2018-09-28T15:27:49.590Z,8.05
2018-09-28T15:30:17.436Z,9.87
2018-09-28T15:32:45.213Z,8.97
2018-09-28T15:35:13.153Z,11.87
2018-09-28T15:37:40.907Z,12.13
2018-09-28T15:40:08.652Z,5.33
2018-09-28T15:42:36.343Z,10.03
2018-09-28T15:45:04.251Z,14.20
2018-09-28T15:47:32.044Z,8.80
2018-09-28T15:49:59.794Z,6.58
2018-09-28T15:52:27.518Z,10.30
2018-09-28T15:54:55.320Z,6.83
2018-09-28T15:57:23.050Z,7.03
2018-09-28T15:59:50.744Z,9.10
2018-09-28T16:02:19.288Z,11.10
2018-09-28T16:04:46.970Z,4.12
2018-09-28T16:07:14.658Z,11.80
2018-09-28T16:09:42.314Z,6.43
2018-09-28T16:12:10.244Z,18.98
2018-09-28T16:14:37.935Z,7.67
2018-09-28T16:17:05.799Z,9.88
2018-09-28T16:19:33.489Z,10.72
2018-09-28T16:22:01.320Z,6.92
2018-09-28T16:24:28.942Z,12.20
2018-09-28T16:26:56.641Z,13.30
2018-09-28T16:29:24.331Z,8.27
2018-09-28T16:31:52.034Z,7.85
2018-09-28T16:34:20.058Z,15.10
2018-09-28T16:36:47.766Z,4.80
2018-09-28T16:39:15.499Z,15.43
2018-09-28T16:41:43.171Z,8.67
2018-09-28T16:44:10.789Z,10.30
2018-09-28T16:46:38.512Z,10.00
2018-09-28T16:49:13.011Z,9.38
2018-09-28T16:51:40.776Z,11.43
2018-09-28T16:54:08.540Z,11.23
2018-09-28T16:56:36.209Z,12.93
2018-09-28T16:59:03.978Z,8.60
2018-09-28T17:01:31.770Z,14.40
2018-09-28T17:03:59.435Z,14.90
2018-09-28T17:06:27.098Z,10.33
2018-09-28T17:08:54.785Z,8.88
2018-09-28T17:11:22.508Z,10.78
2018-09-28T17:13:50.250Z,11.43
2018-09-28T17:16:17.940Z,13.37
2018-09-28T17:18:45.576Z,16.27
2018-09-28T17:21:13.254Z,10.05
2018-09-28T17:23:40.897Z,10.47
2018-09-28T17:26:08.570Z,13.25
2018-09-28T17:28:36.327Z,9.93
2018-09-28T17:31:04.016Z,14.93
2018-09-28T17:33:32.044Z,10.23
2018-09-28T17:35:59.830Z,10.67
2018-09-28T17:38:27.501Z,13.13
2018-09-28T17:40:55.200Z,10.93
2018-09-28T17:43:22.938Z,10.10
2018-09-28T17:45:50.653Z,10.03
2018-09-28T17:48:18.354Z,10.87
2018-09-28T17:50:46.031Z,10.87
2018-09-28T17:53:13.854Z,9.77
2018-09-28T17:55:41.858Z,12.00
2018-09-28T17:58:09.688Z,7.60
2018-09-28T18:00:37.415Z,13.43
2018-09-28T18:03:05.549Z,7.50
2018-09-28T18:05:33.246Z,16.40
2018-09-28T18:08:00.997Z,9.25
2018-09-28T18:10:28.817Z,8.10
2018-09-28T18:12:56.661Z,6.77
2018-09-28T18:15:24.323Z,8.77
2018-09-28T18:17:52.140Z,8.53
2018-09-28T18:20:19.972Z,9.70
2018-09-28T18:22:47.583Z,8.23
2018-09-28T18:25:15.344Z,8.20
2018-09-28T18:27:43.158Z,9.35
2018-09-28T18:30:10.838Z,9.33
2018-09-28T18:32:38.461Z,15.43
2018-09-28T18:35:06.511Z,8.87
2018-09-28T18:37:34.209Z,7.47
2018-09-28T18:40:02.058Z,9.60
2018-09-28T18:42:29.960Z,7.30
2018-09-28T18:44:57.678Z,15.03
2018-09-28T18:47:25.446Z,14.38
2018-09-28T18:49:53.097Z,12.33
2018-09-28T18:52:20.885Z,11.63
2018-09-28T18:54:48.547Z,11.68
2018-09-28T18:57:16.236Z,7.07
2018-09-28T18:59:44.185Z,3.70
2018-09-28T19:02:11.852Z,6.73
2018-09-28T19:04:39.504Z,9.93
2018-09-28T19:07:07.153Z,8.93
2018-09-28T19:09:34.809Z,9.63
2018-09-28T19:12:02.541Z,9.57
2018-09-28T19:14:30.285Z,12.63
2018-09-28T19:16:58.109Z,7.43
2018-09-28T19:19:25.883Z,11.05
2018-09-28T19:21:53.540Z,4.20
2018-09-28T19:24:21.301Z,9.83
2018-09-28T19:26:48.962Z,10.63
2018-09-28T19:29:16.641Z,7.27
2018-09-28T19:31:44.471Z,5.90
2018-09-28T19:34:12.198Z,8.77
2018-09-28T19:36:39.914Z,8.90
2018-09-28T19:39:14.213Z,5.45
2018-09-28T19:41:42.115Z,7.00
2018-09-28T19:44:09.951Z,6.50
2018-09-28T19:46:37.634Z,10.27
2018-09-28T19:49:05.489Z,12.53
2018-09-28T19:51:33.243Z,12.00
2018-09-28T19:54:00.975Z,5.27
2018-09-28T19:56:28.674Z,4.57
2018-09-28T19:58:56.551Z,8.30
2018-09-28T20:01:24.641Z,11.10
2018-09-28T20:03:52.415Z,18.87
2018-09-28T20:06:20.243Z,10.50
2018-09-28T20:08:47.984Z,13.53
2018-09-28T20:11:15.690Z,10.80
2018-09-28T20:13:43.440Z,11.18
2018-09-28T20:16:11.058Z,6.45
2018-09-28T20:18:38.812Z,12.70
2018-09-28T20:21:06.586Z,7.93
2018-09-28T20:23:34.352Z,14.40
2018-09-28T20:26:02.001Z,13.70
2018-09-28T20:28:29.699Z,13.57
2018-09-28T20:30:57.368Z,12.15
2018-09-28T20:33:25.024Z,11.68
2018-09-28T20:35:52.725Z,7.37
2018-09-28T20:38:20.429Z,9.60
2018-09-28T20:40:48.113Z,6.30
2018-09-28T20:43:15.706Z,10.78
2018-09-28T20:45:43.419Z,9.20
2018-09-28T20:48:11.134Z,13.97
2018-09-28T20:50:38.802Z,8.33
2018-09-28T20:53:06.580Z,15.30
2018-09-28T20:55:34.342Z,12.98
2018-09-28T20:58:02.042Z,5.33
2018-09-28T21:00:29.711Z,9.55
2018-09-28T21:02:57.331Z,10.28
2018-09-28T21:05:24.941Z,12.53
2018-09-28T21:10:27.023Z,7.90
2018-09-28T21:12:54.641Z,8.83
2018-09-28T21:15:22.242Z,8.43
2018-09-28T21:17:49.874Z,6.70
2018-09-28T21:20:17.505Z,6.47
2018-09-28T21:22:45.130Z,8.23
2018-09-28T21:25:12.766Z,6.33
2018-09-28T21:27:40.378Z,13.63
2018-09-28T21:30:08.018Z,5.42
2018-09-28T21:32:35.646Z,11.23
2018-09-28T21:35:03.308Z,7.45
2018-09-28T21:37:30.988Z,10.53
2018-09-28T21:39:58.693Z,9.07
2018-09-28T21:42:26.418Z,8.77
2018-09-28T21:44:54.038Z,11.27
2018-09-28T21:47:21.712Z,7.22
2018-09-28T21:49:49.390Z,8.70
2018-09-28T21:52:17.126Z,11.93
2018-09-28T21:54:44.785Z,22.97
2018-09-28T21:57:12.473Z,7.83
2018-09-28T21:59:40.249Z,9.53
2018-09-28T22:02:07.932Z,10.37
2018-09-28T22:04:35.673Z,12.98
2018-09-28T22:07:03.338Z,7.12
2018-09-28T22:09:30.991Z,9.80
2018-09-28T22:11:58.617Z,5.23
2018-09-28T22:14:26.255Z,6.33
2018-09-28T22:16:53.964Z,7.47
2018-09-28T22:19:21.597Z,15.50
2018-09-28T22:21:49.243Z,4.87
2018-09-28T22:24:17.064Z,10.25
2018-09-28T22:26:44.690Z,6.00
2018-09-28T22:29:12.425Z,12.63
2018-09-28T22:31:40.078Z,8.88
2018-09-28T22:34:07.738Z,5.17
2018-09-28T22:36:35.464Z,4.87
2018-09-28T22:39:04.954Z,7.87
2018-09-28T22:41:32.588Z,4.30
2018-09-28T22:44:00.226Z,6.42
2018-09-28T22:46:27.799Z,6.58
2018-09-28T22:48:55.428Z,6.60
2018-09-28T22:51:23.062Z,3.73
2018-09-28T22:53:50.630Z,4.80
2018-09-28T22:56:18.296Z,4.93
2018-09-28T22:58:45.946Z,5.87
2018-09-28T23:01:13.718Z,5.87
2018-09-28T23:03:41.346Z,5.12
2018-09-28T23:06:09.003Z,7.13
2018-09-28T23:08:36.681Z,6.35
2018-09-28T23:11:04.364Z,4.10
2018-09-28T23:13:31.989Z,7.97
2018-09-28T23:15:59.637Z,4.13
2018-09-28T23:18:27.308Z,9.00
2018-09-28T23:20:54.953Z,8.78
2018-09-28T23:23:22.584Z,13.27
2018-09-28T23:25:50.217Z,7.53
2018-09-28T23:28:17.971Z,6.80
2018-09-28T23:30:45.595Z,13.65
2018-09-28T23:33:13.171Z,5.17
2018-09-28T23:35:40.723Z,4.22
2018-09-28T23:38:08.288Z,4.43
2018-09-28T23:40:35.952Z,4.73
2018-09-28T23:43:03.579Z,10.80
2018-09-28T23:45:31.197Z,3.10
2018-09-28T23:47:58.877Z,6.50
2018-09-28T23:50:26.563Z,7.50
2018-09-28T23:52:54.274Z,3.25
2018-09-28T23:55:21.973Z,14.03
2018-09-28T23:57:49.591Z,4.20
